Time;durP1;ratioP1;P1;durP2;ratioP2;P2;SDS_P1;SDS_P2;PMS_P1;PMS_P2;Temp;Humidity;BMP_temperature;BMP_pressure;BME280_temperature;BME280_humidity;BME280_pressure;Samples;Min_cycle;Max_cycle;Signal;HPM_P1;HPM_P2
2020/12/20 00:01:24;;;;;;;3.15;1.81;;;;;;;9.99;79.14;99486.59;2026341;80;20285;-77
2020/12/20 00:04:26;;;;;;;5.45;1.86;;;;;;;9.98;79.28;99491.78;2026920;79;20433;-77
2020/12/20 00:07:27;;;;;;;4.19;1.85;;;;;;;9.96;79.44;99493.50;2025519;80;20337;-76
2020/12/20 00:10:29;;;;;;;2.86;1.55;;;;;;;9.95;79.59;99487.44;2026672;80;20203;-77
2020/12/20 00:13:31;;;;;;;2.88;1.70;;;;;;;9.97;79.59;99487.44;2025646;80;20360;-76
2020/12/20 00:16:33;;;;;;;6.00;1.65;;;;;;;9.95;79.77;99490.03;2026133;80;20170;-77
2020/12/20 00:19:41;;;;;;;1.90;1.15;;;;;;;9.97;79.84;99482.25;2025884;80;20259;-77
2020/12/20 00:22:43;;;;;;;3.81;1.86;;;;;;;9.97;79.83;99477.94;2025246;80;20361;-77
2020/12/20 00:25:45;;;;;;;4.21;1.84;;;;;;;9.97;79.83;99477.06;2026920;79;20215;-76
2020/12/20 00:28:47;;;;;;;3.10;1.40;;;;;;;9.98;79.83;99469.28;2027192;79;20494;-77
2020/12/20 00:31:48;;;;;;;2.30;1.41;;;;;;;9.98;79.91;99469.28;2025866;80;20802;-77
2020/12/20 00:34:50;;;;;;;3.30;1.85;;;;;;;10.00;79.92;99471.88;2065133;68;20353;-77
2020/12/20 00:37:51;;;;;;;5.10;1.50;;;;;;;10.00;79.91;99471.88;2020989;80;21057;-76
2020/12/20 00:40:53;;;;;;;4.24;1.73;;;;;;;10.01;79.98;99471.00;2021502;80;20176;-77
2020/12/20 00:43:55;;;;;;;3.90;1.60;;;;;;;10.00;80.05;99458.91;2021612;79;20187;-76
2020/12/20 00:46:59;;;;;;;3.74;1.56;;;;;;;10.00;80.08;99457.19;2020984;80;20186;-76
2020/12/20 00:50:00;;;;;;;3.86;1.60;;;;;;;9.97;80.33;99457.19;2021325;80;20605;-77
2020/12/20 00:53:02;;;;;;;4.01;1.83;;;;;;;9.97;80.43;99462.38;2020822;80;20671;-76
2020/12/20 00:56:05;;;;;;;3.51;1.73;;;;;;;9.96;80.43;99458.06;2021906;79;20187;-76
2020/12/20 00:59:07;;;;;;;3.86;1.80;;;;;;;9.96;80.53;99464.97;2021099;80;20228;-76
2020/12/20 01:02:08;;;;;;;3.95;1.60;;;;;;;9.95;80.64;99466.69;2020635;80;20328;-76
2020/12/20 01:05:10;;;;;;;2.10;1.80;;;;;;;9.94;80.70;99464.13;2021664;80;20232;-77
2020/12/20 01:08:12;;;;;;;4.75;1.90;;;;;;;9.96;80.66;99460.66;2021568;80;20348;-77
2020/12/20 01:11:14;;;;;;;3.15;1.49;;;;;;;9.92;80.87;99463.25;2021558;80;20630;-77
2020/12/20 01:14:16;;;;;;;2.19;1.52;;;;;;;9.91;80.99;99462.38;2021277;80;21293;-77
2020/12/20 01:17:17;;;;;;;2.92;2.04;;;;;;;9.91;81.08;99464.13;2021084;79;20304;-77
2020/12/20 01:20:19;;;;;;;3.15;1.61;;;;;;;9.88;81.23;99466.72;2021441;80;20189;-77
2020/12/20 01:23:22;;;;;;;4.81;1.64;;;;;;;9.88;81.51;99471.91;2018584;79;20190;-77
2020/12/20 01:26:23;;;;;;;3.72;1.56;;;;;;;9.86;81.62;99473.59;2020865;80;20746;-77
2020/12/20 01:29:25;;;;;;;2.28;1.51;;;;;;;9.83;81.74;99479.66;2021181;80;20899;-77
2020/12/20 01:32:26;;;;;;;3.56;1.54;;;;;;;9.83;82.05;99478.81;2020786;80;20275;-77
2020/12/20 01:35:28;;;;;;;2.54;1.50;;;;;;;9.86;82.05;99478.78;2020992;80;21357;-78
2020/12/20 01:38:30;;;;;;;2.75;1.54;;;;;;;9.87;82.03;99477.94;2020446;80;20179;-77
2020/12/20 01:41:31;;;;;;;4.10;1.69;;;;;;;9.90;82.11;99485.75;2020919;80;20263;-77
2020/12/20 01:44:33;;;;;;;2.55;1.50;;;;;;;9.90;82.24;99486.59;2020991;80;20179;-77
2020/12/20 01:47:36;;;;;;;3.63;1.83;;;;;;;9.90;82.29;99481.41;2021290;79;20191;-77
2020/12/20 01:50:38;;;;;;;4.40;2.00;;;;;;;9.93;82.40;99493.50;2020982;80;20171;-78
2020/12/20 01:53:40;;;;;;;5.29;2.34;;;;;;;9.92;82.49;99492.66;2019937;80;20167;-77
2020/12/20 01:56:42;;;;;;;4.34;1.83;;;;;;;9.90;82.85;99488.31;2020588;79;20172;-77
2020/12/20 01:59:45;;;;;;;3.75;2.09;;;;;;;9.86;83.09;99479.66;2020885;80;20658;-76
2020/12/20 02:02:47;;;;;;;3.55;1.49;;;;;;;9.85;83.34;99483.13;2020537;80;20863;-77
2020/12/20 02:05:51;;;;;;;4.34;1.85;;;;;;;9.87;83.44;99485.72;2021035;80;20926;-77
2020/12/20 02:08:53;;;;;;;4.14;1.66;;;;;;;9.87;83.43;99483.97;2021098;80;20189;-77
2020/12/20 02:12:03;;;;;;;4.45;1.63;;;;;;;9.85;83.50;99479.66;2020447;80;20156;-77
2020/12/20 02:15:04;;;;;;;2.51;1.30;;;;;;;9.84;83.74;99489.16;2020228;80;20196;-77
2020/12/20 02:18:06;;;;;;;3.96;2.65;;;;;;;9.85;83.78;99485.72;2020937;80;20328;-78
2020/12/20 02:21:18;;;;;;;3.45;1.63;;;;;;;9.84;83.85;99477.94;2020241;80;20336;-77
2020/12/20 02:24:20;;;;;;;2.67;1.74;;;;;;;9.84;84.00;99480.53;2020982;80;20739;-77
2020/12/20 02:27:22;;;;;;;4.00;1.56;;;;;;;9.84;84.00;99478.81;2021462;79;20195;-78
2020/12/20 02:30:23;;;;;;;5.03;1.69;;;;;;;9.86;84.04;99481.38;2020384;79;20237;-77
2020/12/20 02:33:25;;;;;;;4.05;1.81;;;;;;;9.84;84.19;99488.31;2021426;80;20357;-77
2020/12/20 02:36:27;;;;;;;3.36;2.00;;;;;;;9.83;84.24;99478.81;2020738;80;20167;-78
2020/12/20 02:39:31;;;;;;;5.13;1.70;;;;;;;9.83;84.34;99486.59;2020532;80;20175;-78
2020/12/20 02:42:33;;;;;;;4.29;1.80;;;;;;;9.83;84.44;99490.03;2020893;80;20179;-77
2020/12/20 02:45:34;;;;;;;2.84;1.86;;;;;;;9.84;84.31;99486.56;2020304;80;20334;-77
2020/12/20 02:48:37;;;;;;;5.18;1.92;;;;;;;9.84;84.37;99488.31;2020864;79;20234;-77
2020/12/20 02:51:39;;;;;;;6.29;2.50;;;;;;;9.83;84.55;99490.03;2020651;80;20200;-77
2020/12/20 02:54:41;;;;;;;7.31;2.24;;;;;;;9.86;84.64;99483.97;2020646;80;20214;-77
2020/12/20 02:57:42;;;;;;;3.51;1.66;;;;;;;9.86;84.71;99499.53;2020697;80;20994;-77
2020/12/20 03:00:44;;;;;;;3.89;1.79;;;;;;;9.87;84.58;99483.13;2019784;80;20155;-77
2020/12/20 03:03:46;;;;;;;5.95;2.09;;;;;;;9.87;84.54;99490.91;2023209;80;20494;-78
2020/12/20 03:06:47;;;;;;;2.15;1.38;;;;;;;9.85;84.75;99485.72;2022923;79;20288;-77
2020/12/20 03:09:50;;;;;;;4.43;1.70;;;;;;;9.86;84.76;99483.97;2023155;80;20317;-78
2020/12/20 03:12:52;;;;;;;2.95;1.65;;;;;;;9.84;84.86;99483.97;2022816;80;20196;-78
2020/12/20 03:15:54;;;;;;;3.01;1.50;;;;;;;9.85;84.93;99490.03;2022296;80;20356;-78
2020/12/20 03:18:55;;;;;;;3.81;1.69;;;;;;;9.84;84.84;99489.16;2023464;80;20308;-78
2020/12/20 03:21:57;;;;;;;4.79;1.85;;;;;;;9.86;84.84;99481.38;2022512;80;20179;-77
2020/12/20 03:24:59;;;;;;;3.49;2.01;;;;;;;9.85;85.09;99496.09;2023390;80;20204;-78
2020/12/20 03:28:00;;;;;;;2.90;1.51;;;;;;;9.87;85.08;99488.31;2023363;80;20323;-77
2020/12/20 03:31:02;;;;;;;4.91;1.65;;;;;;;9.84;85.17;99496.09;2022748;80;20232;-77
2020/12/20 03:34:03;;;;;;;3.81;1.85;;;;;;;9.84;85.09;99498.69;2035187;79;21033;-78
2020/12/20 03:37:05;;;;;;;4.80;1.27;;;;;;;9.83;85.24;99490.03;2050037;79;20812;-77
2020/12/20 03:40:07;;;;;;;3.39;1.83;;;;;;;9.82;85.37;99490.03;2049830;79;20217;-78
2020/12/20 03:43:08;;;;;;;3.10;1.48;;;;;;;9.83;85.30;99494.34;2049591;79;20436;-77
2020/12/20 03:46:10;;;;;;;3.54;1.51;;;;;;;9.81;85.40;99493.50;2049415;79;20379;-77
2020/12/20 03:49:12;;;;;;;2.33;1.19;;;;;;;9.80;85.54;99505.59;2050595;79;20231;-77
2020/12/20 03:52:13;;;;;;;4.49;1.66;;;;;;;9.81;85.62;99512.50;2049178;79;20195;-78
2020/12/20 03:55:15;;;;;;;3.71;1.70;;;;;;;9.80;85.50;99503.00;2052680;78;20314;-77
2020/12/20 03:58:17;;;;;;;2.44;1.40;;;;;;;9.81;85.51;99509.06;2048043;79;20719;-77
2020/12/20 04:01:19;;;;;;;3.59;1.41;;;;;;;9.79;85.46;99505.59;2048634;79;20190;-77
2020/12/20 04:04:20;;;;;;;3.16;1.30;;;;;;;9.77;85.37;99504.75;2048598;79;20156;-77
2020/12/20 04:07:22;;;;;;;2.64;1.55;;;;;;;9.77;85.44;99513.38;2048521;79;20203;-77
2020/12/20 04:10:26;;;;;;;5.45;2.31;;;;;;;9.76;85.48;99505.59;2049096;79;20188;-77
2020/12/20 04:13:32;;;;;;;2.59;1.51;;;;;;;9.73;85.59;99516.84;2047903;79;20210;-78
2020/12/20 04:16:34;;;;;;;3.10;1.66;;;;;;;9.73;85.81;99516.84;2048350;79;20472;-78
2020/12/20 04:19:36;;;;;;;5.99;1.46;;;;;;;9.75;85.83;99519.44;2047849;79;20398;-78
2020/12/20 04:22:38;;;;;;;2.96;1.41;;;;;;;9.73;85.98;99518.56;2048252;79;20240;-78
2020/12/20 04:25:39;;;;;;;2.63;1.50;;;;;;;9.73;86.04;99522.03;2049096;79;20735;-77
2020/12/20 04:28:41;;;;;;;1.99;1.27;;;;;;;9.71;86.07;99513.38;2048132;79;20787;-77
2020/12/20 04:31:42;;;;;;;2.42;1.10;;;;;;;9.72;85.88;99524.63;2047382;78;20330;-78
2020/12/20 04:34:44;;;;;;;4.50;1.60;;;;;;;9.69;85.78;99516.00;2049032;79;20858;-78
2020/12/20 04:37:45;;;;;;;4.70;1.63;;;;;;;9.69;85.83;99515.09;2048260;79;20454;-77
2020/12/20 04:40:48;;;;;;;2.71;1.58;;;;;;;9.67;85.94;99522.88;2047747;79;20320;-78
2020/12/20 04:43:50;;;;;;;2.08;1.27;;;;;;;9.67;86.14;99522.00;2048548;79;20343;-78
2020/12/20 04:46:53;;;;;;;3.46;1.30;;;;;;;9.65;86.30;99519.41;2048539;79;20331;-78
2020/12/20 04:49:56;;;;;;;2.49;1.60;;;;;;;9.64;86.44;99527.19;2047852;79;20261;-78
2020/12/20 04:52:59;;;;;;;3.83;1.33;;;;;;;9.62;86.39;99523.72;2047537;79;20330;-79
2020/12/20 04:56:09;;;;;;;3.71;1.26;;;;;;;9.60;86.39;99530.66;2048479;79;20314;-78
2020/12/20 04:59:12;;;;;;;3.96;1.67;;;;;;;9.55;86.31;99527.19;2048176;79;20328;-78
2020/12/20 05:02:14;;;;;;;4.21;1.90;;;;;;;9.50;86.54;99534.94;2048342;79;20346;-79
2020/12/20 05:05:16;;;;;;;4.20;1.40;;;;;;;9.46;86.82;99529.75;2048210;79;20412;-77
2020/12/20 05:08:21;;;;;;;3.45;1.96;;;;;;;9.46;87.34;99528.03;2048418;79;20807;-77
2020/12/20 05:11:49;;;;;;;2.88;1.69;;;;;;;9.47;87.47;99524.56;2048102;79;20355;-78
2020/12/20 05:14:50;;;;;;;3.11;1.76;;;;;;;9.41;87.31;99519.38;2047490;79;20196;-78
2020/12/20 05:18:12;;;;;;;3.69;1.85;;;;;;;9.38;87.69;99532.34;2048061;79;20346;-78
2020/12/20 05:21:25;;;;;;;3.69;1.89;;;;;;;9.38;88.02;99529.75;2047673;79;20172;-78
2020/12/20 05:24:28;;;;;;;3.71;1.46;;;;;;;9.37;88.47;99539.25;2047953;79;20298;-78
2020/12/20 05:27:30;;;;;;;3.40;1.70;;;;;;;9.37;88.52;99528.00;2048272;79;20414;-79
2020/12/20 05:30:31;;;;;;;5.65;2.95;;;;;;;9.33;88.40;99529.72;2047382;79;20334;-78
2020/12/20 05:33:34;;;;;;;2.95;1.64;;;;;;;9.27;88.23;99529.69;2048380;79;20391;-78
2020/12/20 05:36:36;;;;;;;2.51;1.96;;;;;;;9.28;88.62;99522.78;2048227;79;20375;-78
2020/12/20 05:39:38;;;;;;;5.19;2.14;;;;;;;9.30;88.85;99531.44;2047636;79;20788;-78
2020/12/20 05:42:58;;;;;;;4.46;2.36;;;;;;;9.33;89.02;99536.63;2047918;78;20333;-77
2020/12/20 05:46:00;;;;;;;4.09;2.44;;;;;;;9.33;88.99;99539.22;2048289;79;20351;-78
2020/12/20 05:49:23;;;;;;;5.95;2.05;;;;;;;9.29;88.96;99527.97;2048039;79;20231;-78
2020/12/20 05:52:24;;;;;;;2.60;2.00;;;;;;;9.27;89.00;99532.28;2048316;79;20436;-78
2020/12/20 05:55:37;;;;;;;3.91;2.53;;;;;;;9.24;89.30;99532.28;2048098;79;20387;-78
2020/12/20 05:58:38;;;;;;;5.69;2.65;;;;;;;9.24;89.25;99534.00;2048037;79;20330;-78
2020/12/20 06:01:42;;;;;;;3.58;2.05;;;;;;;9.23;89.14;99537.47;2047829;79;20613;-78
2020/12/20 06:04:45;;;;;;;2.41;1.84;;;;;;;9.22;89.08;99538.31;2048051;79;20340;-78
2020/12/20 06:07:54;;;;;;;3.10;1.86;;;;;;;9.19;88.87;99538.31;2052774;78;20322;-78
2020/12/20 06:10:55;;;;;;;7.76;2.54;;;;;;;9.11;88.82;99540.88;2048298;79;20176;-79
2020/12/20 06:13:59;;;;;;;4.11;2.58;;;;;;;9.12;89.12;99547.78;2048244;79;20205;-78
2020/12/20 06:17:15;;;;;;;2.69;2.13;;;;;;;9.17;89.41;99538.31;2048031;79;20333;-77
2020/12/20 06:20:28;;;;;;;4.15;1.91;;;;;;;9.18;89.35;99541.78;2047342;79;20387;-78
2020/12/20 06:23:34;;;;;;;3.20;2.31;;;;;;;9.17;89.04;99548.69;2047428;79;20306;-78
2020/12/20 06:26:44;;;;;;;2.70;2.13;;;;;;;9.15;88.69;99545.19;2047578;79;20356;-78
2020/12/20 06:29:49;;;;;;;6.06;2.42;;;;;;;9.14;88.39;99546.06;2048588;79;20312;-78
2020/12/20 06:32:58;;;;;;;4.66;2.54;;;;;;;9.16;88.48;99548.69;2047241;79;20345;-78
2020/12/20 06:36:02;;;;;;;3.49;2.36;;;;;;;9.19;88.78;99548.69;2047392;79;21028;-78
2020/12/20 06:39:04;;;;;;;4.13;2.58;;;;;;;9.18;88.68;99552.13;2046652;79;20160;-78
2020/12/20 06:42:06;;;;;;;5.46;2.55;;;;;;;9.20;88.84;99545.22;2047575;78;20332;-78
2020/12/20 06:45:18;;;;;;;4.34;3.16;;;;;;;9.19;88.73;99552.13;2047824;79;20322;-78
2020/12/20 06:48:31;;;;;;;4.39;2.44;;;;;;;9.21;88.72;99554.72;2047720;79;21079;-77
2020/12/20 06:51:33;;;;;;;2.90;2.65;;;;;;;9.21;88.73;99555.59;2047999;79;20447;-78
2020/12/20 06:54:35;;;;;;;5.21;3.00;;;;;;;9.20;88.86;99548.69;2048570;79;20824;-78
2020/12/20 06:58:06;;;;;;;2.94;2.51;;;;;;;9.17;89.02;99553.88;2047334;79;20314;-78
2020/12/20 07:01:08;;;;;;;6.93;2.81;;;;;;;9.14;89.27;99558.13;2048403;79;20299;-77
2020/12/20 07:04:16;;;;;;;3.21;2.86;;;;;;;9.11;89.18;99561.59;2049369;79;21125;-78
2020/12/20 07:07:18;;;;;;;4.25;2.80;;;;;;;9.09;89.19;99566.75;2049049;79;20314;-77
2020/12/20 07:10:38;;;;;;;8.82;3.08;;;;;;;9.09;89.34;99571.94;2047840;79;20367;-76
2020/12/20 07:13:45;;;;;;;4.35;3.53;;;;;;;9.11;89.29;99573.69;2047706;79;20367;-78
2020/12/20 07:16:47;;;;;;;4.25;2.69;;;;;;;9.11;89.22;99584.03;2047977;79;20307;-79
2020/12/20 07:20:11;;;;;;;3.91;2.88;;;;;;;9.12;89.13;99580.59;2047756;79;20323;-77
2020/12/20 07:23:13;;;;;;;5.28;3.16;;;;;;;9.13;89.05;99575.41;2048228;79;20322;-78
2020/12/20 07:26:15;;;;;;;3.47;2.42;;;;;;;9.11;88.90;99582.31;2048765;79;20340;-77
2020/12/20 07:29:18;;;;;;;2.84;2.34;;;;;;;9.09;88.84;99586.63;2020197;80;20424;-76
2020/12/20 07:32:20;;;;;;;3.46;2.59;;;;;;;9.09;88.81;99584.03;2047103;79;20340;-77
2020/12/20 07:35:22;;;;;;;4.88;2.72;;;;;;;9.06;88.61;99590.06;2047580;79;20372;-76
2020/12/20 07:38:23;;;;;;;3.31;2.67;;;;;;;9.07;88.53;99588.34;2020901;80;20328;-77
2020/12/20 07:41:25;;;;;;;4.46;2.66;;;;;;;9.07;88.58;99593.53;2020875;80;21095;-76
2020/12/20 07:44:27;;;;;;;3.30;3.00;;;;;;;9.06;88.38;99591.78;2048410;79;20318;-77
2020/12/20 07:47:29;;;;;;;4.10;3.16;;;;;;;9.05;88.64;99585.75;2021184;80;20337;-77
2020/12/20 07:50:30;;;;;;;7.31;3.95;;;;;;;9.05;88.70;99590.06;2022020;80;20308;-76
2020/12/20 07:53:33;;;;;;;7.64;2.83;;;;;;;9.05;88.96;99588.34;2050199;79;20357;-76
2020/12/20 07:56:43;;;;;;;4.31;2.40;;;;;;;9.07;88.87;99581.44;2049412;79;20314;-77
2020/12/20 07:59:45;;;;;;;2.89;2.36;;;;;;;9.06;88.58;99584.88;2048063;79;20370;-76
2020/12/20 08:02:47;;;;;;;4.06;3.09;;;;;;;9.06;88.41;99591.78;2048368;79;20453;-77
2020/12/20 08:05:48;;;;;;;3.33;2.65;;;;;;;9.06;88.46;99587.47;2048809;79;20332;-76
2020/12/20 08:08:50;;;;;;;4.50;2.64;;;;;;;9.04;88.41;99594.38;2048018;79;20924;-76
2020/12/20 08:11:53;;;;;;;5.34;3.13;;;;;;;9.07;88.38;99593.53;2052828;78;20337;-77
2020/12/20 08:15:07;;;;;;;3.28;2.76;;;;;;;9.04;88.40;99596.97;2048182;79;20205;-76
2020/12/20 08:18:09;;;;;;;11.45;2.90;;;;;;;9.03;88.66;99595.25;2048046;79;20434;-76
2020/12/20 08:21:12;;;;;;;6.01;2.74;;;;;;;9.04;88.78;99596.09;2048158;79;21184;-76
2020/12/20 08:24:37;;;;;;;3.89;2.34;;;;;;;9.05;88.72;99600.44;2047894;79;20539;-76
2020/12/20 08:27:42;;;;;;;2.91;1.99;;;;;;;9.07;88.60;99599.56;2047993;79;20336;-75
2020/12/20 08:30:44;;;;;;;4.36;1.91;;;;;;;9.10;88.62;99606.47;2046989;79;20333;-76
2020/12/20 08:33:45;;;;;;;3.78;1.55;;;;;;;9.09;88.39;99610.81;2047187;79;20942;-76
2020/12/20 08:36:51;;;;;;;4.32;2.76;;;;;;;9.07;88.34;99615.09;2047973;78;20322;-76
2020/12/20 08:39:53;;;;;;;4.56;1.44;;;;;;;9.06;88.33;99617.69;2047730;79;20855;-76
2020/12/20 08:42:58;;;;;;;3.60;1.80;;;;;;;9.04;88.57;99616.81;2048496;79;20706;-75
2020/12/20 08:46:03;;;;;;;;;;;;;;;9.07;88.79;99633.25;2048734;79;20310;-76
2020/12/20 08:49:21;;;;;;;3.80;1.18;;;;;;;9.08;88.84;99627.19;2048099;79;20059;-76
2020/12/20 08:52:27;;;;;;;3.03;1.49;;;;;;;9.09;88.90;99628.94;2021038;80;20213;-76
2020/12/20 08:55:28;;;;;;;1.42;0.94;;;;;;;9.13;88.92;99640.16;2048080;79;20196;-76
2020/12/20 08:58:30;;;;;;;4.47;1.90;;;;;;;9.14;88.91;99641.91;2043099;79;20393;-75
2020/12/20 09:01:41;;;;;;;3.17;1.40;;;;;;;9.11;88.90;99641.03;2042207;79;20828;-75
2020/12/20 09:05:03;;;;;;;2.38;1.36;;;;;;;9.11;88.99;99649.66;2043099;79;20399;-75
2020/12/20 09:08:05;;;;;;;2.47;1.46;;;;;;;9.11;89.19;99657.44;2017477;79;20328;-77
2020/12/20 09:11:23;;;;;;;1.84;1.27;;;;;;;9.12;89.23;99658.28;2046092;79;20326;-76
2020/12/20 09:14:24;;;;;;;1.75;1.19;;;;;;;9.15;89.53;99661.75;2045122;79;20884;-76
2020/12/20 09:17:36;;;;;;;2.24;1.25;;;;;;;9.20;89.54;99659.22;2018277;80;20332;-76
2020/12/20 09:20:41;;;;;;;2.64;1.13;;;;;;;9.26;89.47;99672.19;2015967;80;20344;-76
2020/12/20 09:23:43;;;;;;;3.33;1.64;;;;;;;9.30;89.45;99668.75;2015445;80;20332;-76
2020/12/20 09:27:00;;;;;;;2.19;1.49;;;;;;;9.31;89.47;99676.53;2017636;79;20329;-78
2020/12/20 09:30:06;;;;;;;2.99;1.30;;;;;;;9.36;89.63;99680.03;2045566;79;21230;-76
2020/12/20 09:33:19;;;;;;;2.44;1.55;;;;;;;9.43;89.55;99685.25;2045589;79;20379;-76
2020/12/20 09:36:20;;;;;;;3.20;1.54;;;;;;;9.47;89.55;99690.44;2045812;79;20383;-76
2020/12/20 09:39:22;;;;;;;2.58;1.41;;;;;;;9.52;89.57;99687.91;2018437;80;20389;-76
2020/12/20 09:42:25;;;;;;;3.30;1.56;;;;;;;9.56;89.50;99694.81;2016468;80;21384;-76
2020/12/20 09:45:27;;;;;;;5.53;1.71;;;;;;;9.59;89.48;99695.69;2042502;79;20440;-77
2020/12/20 09:48:30;;;;;;;3.20;1.42;;;;;;;9.64;89.44;99693.13;2043656;79;20159;-76
2020/12/20 09:51:33;;;;;;;3.13;1.81;;;;;;;9.68;89.51;99695.72;2045921;79;20816;-75
2020/12/20 09:54:34;;;;;;;3.25;1.92;;;;;;;9.73;89.33;99695.75;2046051;79;20316;-76
2020/12/20 09:57:36;;;;;;;4.71;1.70;;;;;;;9.77;89.07;99704.41;2045945;79;20326;-76
2020/12/20 10:00:38;;;;;;;3.30;1.99;;;;;;;9.80;88.96;99702.69;2044961;79;20424;-76
2020/12/20 10:03:39;;;;;;;2.47;1.98;;;;;;;9.77;88.58;99699.22;2044614;79;20209;-76
2020/12/20 10:06:41;;;;;;;3.21;2.05;;;;;;;9.79;88.50;99700.97;2043464;79;20334;-77
2020/12/20 10:09:43;;;;;;;4.43;2.04;;;;;;;9.83;88.30;99702.69;2043150;79;20401;-76
2020/12/20 10:12:44;;;;;;;3.89;1.99;;;;;;;9.87;88.18;99698.38;2045084;79;20693;-76
2020/12/20 10:15:46;;;;;;;2.81;1.92;;;;;;;9.90;87.94;99691.50;2018405;80;20316;-75
2020/12/20 10:18:48;;;;;;;4.09;1.65;;;;;;;9.95;87.68;99694.97;2018890;80;20328;-76
2020/12/20 10:21:51;;;;;;;2.88;1.74;;;;;;;10.02;87.51;99689.78;2018729;80;20710;-75
2020/12/20 10:24:52;;;;;;;3.44;1.74;;;;;;;10.04;87.27;99683.72;2018553;80;20332;-76
2020/12/20 10:27:54;;;;;;;3.22;1.30;;;;;;;10.11;87.38;99682.91;2041746;79;20336;-76
2020/12/20 10:30:56;;;;;;;4.72;1.30;;;;;;;10.18;87.09;99682.03;2041828;79;20175;-75
2020/12/20 10:33:58;;;;;;;1.83;1.30;;;;;;;10.27;87.02;99687.28;2045725;79;20168;-75
2020/12/20 10:36:59;;;;;;;3.25;1.19;;;;;;;10.35;86.64;99682.09;2046687;79;20624;-74
2020/12/20 10:40:02;;;;;;;1.48;1.23;;;;;;;10.43;86.23;99688.19;2047377;79;20179;-78
2020/12/20 10:43:04;;;;;;;2.35;1.20;;;;;;;10.54;86.01;99683.84;2047550;79;20298;-75
2020/12/20 10:46:05;;;;;;;3.55;1.20;;;;;;;10.65;85.72;99681.25;2050719;78;20183;-75
2020/12/20 10:49:07;;;;;;;4.03;1.30;;;;;;;10.71;85.14;99678.66;2046894;79;20211;-75
2020/12/20 10:52:08;;;;;;;1.84;0.82;;;;;;;10.74;84.82;99676.03;2045754;79;20606;-74
2020/12/20 10:55:10;;;;;;;2.25;0.80;;;;;;;10.77;84.00;99682.97;2044205;79;20215;-74
2020/12/20 10:58:16;;;;;;;2.47;0.96;;;;;;;10.78;83.51;99676.94;2044855;79;21146;-74
2020/12/20 11:01:19;;;;;;;3.47;1.30;;;;;;;10.79;82.93;99678.66;2043816;79;20209;-75
2020/12/20 11:04:21;;;;;;;3.11;0.98;;;;;;;10.84;82.79;99676.91;2045320;79;20231;-73
2020/12/20 11:07:23;;;;;;;2.75;0.80;;;;;;;10.85;82.99;99678.66;2019536;80;20306;-74
2020/12/20 11:10:25;;;;;;;2.85;0.77;;;;;;;10.86;82.69;99673.44;2047381;79;20235;-73
2020/12/20 11:13:27;;;;;;;3.71;0.90;;;;;;;10.88;82.62;99679.50;2048211;79;20252;-74
2020/12/20 11:16:28;;;;;;;1.66;0.80;;;;;;;10.92;81.97;99682.09;2046642;79;20243;-73
2020/12/20 11:19:30;;;;;;;2.00;0.80;;;;;;;10.95;81.71;99684.69;2047650;79;20172;-74
2020/12/20 11:22:32;;;;;;;5.05;0.70;;;;;;;10.99;81.98;99692.50;2047461;78;20213;-73
2020/12/20 11:25:34;;;;;;;3.14;1.44;;;;;;;11.01;81.62;99680.38;2048055;79;21173;-73
2020/12/20 11:28:35;;;;;;;4.30;0.70;;;;;;;11.08;81.42;99681.19;2047941;79;20183;-73
2020/12/20 11:31:37;;;;;;;0.93;0.55;;;;;;;11.12;81.06;99676.00;2047587;79;20217;-73
2020/12/20 11:34:38;;;;;;;4.79;1.20;;;;;;;11.12;81.06;99673.38;2047288;79;20209;-74
2020/12/20 11:37:40;;;;;;;3.95;1.20;;;;;;;11.10;79.82;99669.06;2047585;79;20180;-75
2020/12/20 11:40:42;;;;;;;3.71;1.52;;;;;;;11.07;80.01;99662.16;2046514;79;20187;-74
2020/12/20 11:43:43;;;;;;;1.76;0.60;;;;;;;11.02;79.00;99665.63;2046647;79;20579;-75
2020/12/20 11:46:45;;;;;;;1.65;0.80;;;;;;;11.01;78.87;99659.56;2047282;79;20191;-75
2020/12/20 11:49:46;;;;;;;3.83;1.21;;;;;;;11.02;79.13;99665.63;2047128;79;20200;-75
2020/12/20 11:52:48;;;;;;;2.33;0.91;;;;;;;11.04;79.25;99658.69;2019951;80;20206;-75
2020/12/20 11:55:50;;;;;;;2.64;1.20;;;;;;;11.01;79.14;99661.31;2046672;79;20171;-76
2020/12/20 11:58:51;;;;;;;2.53;0.91;;;;;;;11.02;78.47;99660.44;2047301;79;20188;-75
2020/12/20 12:01:58;;;;;;;3.34;2.01;;;;;;;10.99;78.30;99669.09;2047034;79;20171;-76
2020/12/20 12:05:00;;;;;;;2.11;0.98;;;;;;;10.97;78.25;99664.78;2047437;79;20998;-76
2020/12/20 12:08:02;;;;;;;3.09;0.98;;;;;;;10.94;78.02;99660.44;2019936;80;20179;-76
2020/12/20 12:11:04;;;;;;;2.28;0.99;;;;;;;10.91;77.99;99657.84;2046922;79;20199;-74
2020/12/20 12:14:05;;;;;;;2.19;0.96;;;;;;;10.94;78.17;99665.63;2047507;79;20181;-74
2020/12/20 12:17:07;;;;;;;1.40;0.70;;;;;;;10.92;77.46;99672.56;2046908;79;20185;-75
2020/12/20 12:20:08;;;;;;;2.31;0.66;;;;;;;10.92;77.25;99669.09;2046723;79;20183;-77
2020/12/20 12:23:10;;;;;;;1.85;0.84;;;;;;;10.93;77.34;99661.31;2046469;79;20279;-74
2020/12/20 12:26:12;;;;;;;2.16;0.71;;;;;;;10.95;77.26;99654.41;2047568;79;20192;-75
2020/12/20 12:29:14;;;;;;;2.96;0.80;;;;;;;10.94;76.60;99656.97;2047789;79;20236;-75
2020/12/20 12:32:17;;;;;;;3.66;1.01;;;;;;;10.94;76.79;99665.63;2048169;78;20195;-75
2020/12/20 12:35:22;;;;;;;1.73;0.66;;;;;;;10.95;76.51;99661.28;2047838;79;20175;-75
2020/12/20 12:38:24;;;;;;;2.88;0.70;;;;;;;10.97;76.35;99662.19;2052004;78;20171;-74
2020/12/20 12:41:27;;;;;;;2.11;0.85;;;;;;;10.99;76.23;99658.72;2047807;79;20593;-74
2020/12/20 12:44:29;;;;;;;3.08;0.82;;;;;;;11.02;76.60;99661.31;2047487;79;20186;-74
2020/12/20 12:47:30;;;;;;;2.41;0.85;;;;;;;11.06;76.18;99659.56;2020373;80;20229;-74
2020/12/20 12:50:34;;;;;;;2.49;0.70;;;;;;;11.10;75.93;99656.94;2019759;80;20175;-75
2020/12/20 12:53:35;;;;;;;2.30;0.85;;;;;;;11.17;76.00;99657.81;2047878;79;20205;-75
2020/12/20 12:56:37;;;;;;;1.11;0.75;;;;;;;11.20;75.28;99665.59;2047580;79;20671;-75
2020/12/20 12:59:38;;;;;;;1.89;0.80;;;;;;;11.23;75.32;99669.91;2047866;79;20156;-75
2020/12/20 13:02:40;;;;;;;3.94;0.85;;;;;;;11.16;74.65;99669.06;2047650;79;20164;-75
2020/12/20 13:05:46;;;;;;;2.76;0.79;;;;;;;11.06;74.44;99670.81;2047496;79;20167;-75
2020/12/20 13:08:48;;;;;;;3.04;0.80;;;;;;;11.02;74.81;99665.63;2047842;79;20156;-75
2020/12/20 13:11:50;;;;;;;1.66;0.75;;;;;;;10.98;75.35;99669.97;2046832;79;20207;-75
2020/12/20 13:14:51;;;;;;;3.24;0.90;;;;;;;10.96;75.40;99663.06;2046666;79;20160;-75
2020/12/20 13:17:53;;;;;;;1.67;0.60;;;;;;;10.95;75.49;99671.69;2047695;79;20189;-75
2020/12/20 13:20:54;;;;;;;1.67;0.71;;;;;;;10.89;75.15;99657.00;2047697;79;20686;-75
2020/12/20 13:23:56;;;;;;;1.38;0.80;;;;;;;10.88;75.58;99653.53;2047468;79;20185;-76
2020/12/20 13:26:57;;;;;;;3.35;1.14;;;;;;;10.85;76.15;99655.25;2048027;79;20563;-75
2020/12/20 13:29:59;;;;;;;3.72;0.90;;;;;;;10.86;76.36;99662.19;2048168;79;20251;-75
2020/12/20 13:33:01;;;;;;;2.47;0.70;;;;;;;10.85;76.57;99661.31;2047919;79;20191;-76
2020/12/20 13:36:06;;;;;;;3.50;1.26;;;;;;;10.87;76.45;99654.41;2042314;79;20753;-76
2020/12/20 13:39:07;;;;;;;2.47;0.84;;;;;;;10.90;76.75;99656.97;2042733;79;20212;-75
2020/12/20 13:42:10;;;;;;;3.29;0.94;;;;;;;10.90;77.09;99656.97;2044902;79;20211;-75
2020/12/20 13:45:12;;;;;;;1.61;0.84;;;;;;;10.88;77.06;99658.72;2018497;79;20265;-75
2020/12/20 13:48:15;;;;;;;5.05;0.95;;;;;;;10.90;77.04;99662.19;2018362;80;20215;-75
2020/12/20 13:51:17;;;;;;;4.49;1.01;;;;;;;10.85;76.97;99671.72;2018286;80;20201;-75
2020/12/20 13:54:18;;;;;;;2.80;1.27;;;;;;;10.81;77.16;99671.72;2018720;80;20695;-75
2020/12/20 13:57:20;;;;;;;3.36;1.04;;;;;;;10.75;78.14;99669.13;2015960;79;20194;-75
2020/12/20 14:00:22;;;;;;;5.57;1.50;;;;;;;10.72;78.96;99672.59;2014764;80;20748;-76
2020/12/20 14:03:23;;;;;;;3.28;1.11;;;;;;;10.69;79.36;99680.38;2043781;79;20200;-75
2020/12/20 14:06:25;;;;;;;3.88;1.06;;;;;;;10.68;79.72;99680.38;2045283;79;20298;-76
2020/12/20 14:09:27;;;;;;;1.48;0.79;;;;;;;10.59;80.12;99681.22;2042728;79;20917;-75
2020/12/20 14:12:29;;;;;;;6.38;1.46;;;;;;;10.54;80.25;99680.38;2044220;79;20167;-75
2020/12/20 14:15:31;;;;;;;3.95;1.54;;;;;;;10.47;80.19;99679.53;2042915;79;20244;-75
2020/12/20 14:18:33;;;;;;;5.81;1.71;;;;;;;10.43;80.44;99685.59;2044459;79;21089;-75
2020/12/20 14:21:36;;;;;;;3.55;1.06;;;;;;;10.39;80.60;99683.81;2040973;79;20246;-73
2020/12/20 14:24:39;;;;;;;3.76;1.13;;;;;;;10.37;80.80;99689.88;2042703;78;20220;-71
2020/12/20 14:27:41;;;;;;;2.84;1.13;;;;;;;10.34;81.04;99695.94;2045003;79;20199;-73
2020/12/20 14:30:42;;;;;;;2.11;1.00;;;;;;;10.29;81.55;99688.16;2044619;79;20193;-72